Time;durP1;ratioP1;P1;durP2;ratioP2;P2;SDS_P1;SDS_P2;PMS_P1;PMS_P2;Temp;Humidity;BMP_temperature;BMP_pressure;BME280_temperature;BME280_humidity;BME280_pressure;Samples;Min_cycle;Max_cycle;Signal;HPM_P1;HPM_P2
2023/01/08 00:00:45;;;;;;;;;;;10.40;99.90;;;;;;5040560;28;19917;-75
2023/01/08 00:03:10;;;;;;;;;;;10.50;99.90;;;;;;5041322;28;19913;-76
2023/01/08 00:05:36;;;;;;;;;;;10.60;99.90;;;;;;5044057;28;19921;-73
2023/01/08 00:08:02;;;;;;;;;;;10.70;99.90;;;;;;5044324;28;19909;-74
2023/01/08 00:10:27;;;;;;;;;;;10.70;99.90;;;;;;5044936;28;19913;-73
2023/01/08 00:12:54;;;;;;;;;;;10.70;99.90;;;;;;5041885;28;19940;-71
2023/01/08 00:15:19;;;;;;;;;;;10.70;99.90;;;;;;5040674;28;19912;-77
2023/01/08 00:17:45;;;;;;;;;;;10.70;99.90;;;;;;5032976;28;19940;-74
2023/01/08 00:20:10;;;;;;;;;;;10.80;99.90;;;;;;5050057;28;19920;-74
2023/01/08 00:22:36;;;;;;;;;;;10.70;99.90;;;;;;5037466;28;19947;-75
2023/01/08 00:25:01;;;;;;;;;;;10.70;99.90;;;;;;5041631;28;19917;-74
2023/01/08 00:27:26;;;;;;;;;;;10.60;99.90;;;;;;5043828;28;20364;-74
2023/01/08 00:29:52;;;;;;;;;;;10.50;99.90;;;;;;5045900;28;19924;-74
2023/01/08 00:32:17;;;;;;;;;;;10.40;99.90;;;;;;5043091;28;20039;-76
2023/01/08 00:34:43;;;;;;;;;;;10.30;99.90;;;;;;5039636;28;19994;-75
2023/01/08 00:37:08;;;;;;;;;;;10.20;99.90;;;;;;5039419;28;19979;-73
2023/01/08 00:39:34;;;;;;;;;;;10.20;99.90;;;;;;5034264;28;19912;-73
2023/01/08 00:41:59;;;;;;;;;;;10.10;99.90;;;;;;5034215;28;19963;-77
2023/01/08 00:44:25;;;;;;;;;;;10.00;99.90;;;;;;5043546;28;19913;-74
2023/01/08 00:46:50;;;;;;;;;;;9.80;99.90;;;;;;5048427;28;19909;-72
2023/01/08 00:49:16;;;;;;;;;;;9.80;99.90;;;;;;5037805;28;19943;-74
2023/01/08 00:51:41;;;;;;;;;;;9.80;99.90;;;;;;5038532;28;19966;-76
2023/01/08 00:54:08;;;;;;;;;;;9.70;99.90;;;;;;5043750;28;19975;-74
2023/01/08 00:56:33;;;;;;;;;;;9.70;99.90;;;;;;5042491;28;19920;-76
2023/01/08 00:58:59;;;;;;;;;;;9.70;99.90;;;;;;5042574;28;19913;-73
2023/01/08 01:01:24;;;;;;;;;;;9.60;99.90;;;;;;5046069;28;19917;-75
2023/01/08 01:03:49;;;;;;;;;;;9.60;99.90;;;;;;5045663;28;19921;-74
2023/01/08 01:06:15;;;;;;;;;;;9.60;99.90;;;;;;5046917;28;19940;-75
2023/01/08 01:08:41;;;;;;;;;;;9.50;99.90;;;;;;5035663;28;19919;-74
2023/01/08 01:11:07;;;;;;;;;;;9.60;99.90;;;;;;5047306;28;20679;-75
2023/01/08 01:13:32;;;;;;;;;;;9.60;99.90;;;;;;5041011;28;19924;-75
2023/01/08 01:15:59;;;;;;;;;;;9.60;99.90;;;;;;5044605;28;19913;-74
2023/01/08 01:18:25;;;;;;;;;;;9.60;99.90;;;;;;5044005;28;19991;-74
2023/01/08 01:20:50;;;;;;;;;;;9.60;99.90;;;;;;5038849;28;20003;-74
2023/01/08 01:23:15;;;;;;;;;;;9.60;99.90;;;;;;5043711;28;20508;-74
2023/01/08 01:25:41;;;;;;;;;;;9.60;99.90;;;;;;5044148;28;19909;-73
2023/01/08 01:28:06;;;;;;;;;;;9.50;99.90;;;;;;5043436;28;19920;-74
2023/01/08 01:30:32;;;;;;;;;;;9.50;99.90;;;;;;5042105;28;19945;-73
2023/01/08 01:32:57;;;;;;;;;;;9.60;99.90;;;;;;5042775;28;19921;-77
2023/01/08 01:35:23;;;;;;;;;;;9.60;99.90;;;;;;5039060;28;19913;-75
2023/01/08 01:37:48;;;;;;;;;;;9.60;99.90;;;;;;5043685;28;20297;-74
2023/01/08 01:40:14;;;;;;;;;;;9.60;99.90;;;;;;5039927;28;19919;-74
2023/01/08 01:42:39;;;;;;;;;;;9.60;99.90;;;;;;5042591;28;19916;-74
2023/01/08 01:45:21;;;;;;;;;;;9.60;99.90;;;;;;5041115;28;19959;-75
2023/01/08 01:47:53;;;;;;;;;;;9.60;99.90;;;;;;5041370;28;19921;-73
2023/01/08 01:50:21;;;;;;;;;;;9.70;99.90;;;;;;5043400;28;19917;-73
2023/01/08 01:52:50;;;;;;;;;;;9.70;99.90;;;;;;5040009;28;20424;-75
2023/01/08 01:55:16;;;;;;;;;;;9.70;99.90;;;;;;5037418;28;19908;-74
2023/01/08 01:57:46;;;;;;;;;;;9.70;99.90;;;;;;5039441;28;19916;-74
2023/01/08 02:00:11;;;;;;;;;;;9.80;99.90;;;;;;5038960;28;19913;-75
2023/01/08 02:02:37;;;;;;;;;;;9.80;99.90;;;;;;5037718;28;19915;-74
2023/01/08 02:05:02;;;;;;;;;;;9.80;99.90;;;;;;5041528;28;19921;-73
2023/01/08 02:07:39;;;;;;;;;;;9.90;99.90;;;;;;5041660;28;19908;-72
2023/01/08 02:10:09;;;;;;;;;;;9.90;99.90;;;;;;5046242;28;20723;-73
2023/01/08 02:12:37;;;;;;;;;;;9.90;99.90;;;;;;5044156;28;20347;-74
2023/01/08 02:15:12;;;;;;;;;;;9.90;99.90;;;;;;5038269;28;20617;-73
2023/01/08 02:17:41;;;;;;;;;;;9.90;99.90;;;;;;5032361;28;20358;-74
2023/01/08 02:20:06;;;;;;;;;;;9.90;99.90;;;;;;5038303;28;20453;-74
2023/01/08 02:22:50;;;;;;;;;;;9.90;99.90;;;;;;5043523;28;20000;-73
2023/01/08 02:25:26;;;;;;;;;;;9.80;99.90;;;;;;5044852;28;19919;-74
2023/01/08 02:27:52;;;;;;;;;;;9.80;99.90;;;;;;5043233;28;20371;-73
2023/01/08 02:30:18;;;;;;;;;;;9.80;99.90;;;;;;5037952;28;19917;-73
2023/01/08 02:32:43;;;;;;;;;;;9.80;99.90;;;;;;5043319;28;19912;-72
2023/01/08 02:35:09;;;;;;;;;;;9.80;99.90;;;;;;5042422;28;20019;-75
2023/01/08 02:37:35;;;;;;;;;;;9.70;99.90;;;;;;5043993;28;19974;-75
2023/01/08 02:40:07;;;;;;;;;;;9.80;99.90;;;;;;5040955;28;20000;-71
2023/01/08 02:42:37;;;;;;;;;;;9.80;99.90;;;;;;5034103;28;20461;-74
2023/01/08 02:45:12;;;;;;;;;;;9.90;99.90;;;;;;5033236;28;20361;-75
2023/01/08 02:47:37;;;;;;;;;;;9.90;99.90;;;;;;5034350;28;19921;-75
2023/01/08 02:50:09;;;;;;;;;;;9.90;99.90;;;;;;5036257;28;19935;-74
2023/01/08 02:52:37;;;;;;;;;;;10.00;99.90;;;;;;5039087;28;19913;-73
2023/01/08 02:55:03;;;;;;;;;;;9.90;99.90;;;;;;5035649;28;19913;-74
2023/01/08 02:57:31;;;;;;;;;;;9.90;99.90;;;;;;5040079;28;19919;-75
2023/01/08 02:59:56;;;;;;;;;;;9.90;99.90;;;;;;5043295;28;19913;-74
2023/01/08 03:02:22;;;;;;;;;;;9.90;99.90;;;;;;5040693;28;19924;-74
2023/01/08 03:04:53;;;;;;;;;;;9.90;99.90;;;;;;5036083;28;19916;-75
2023/01/08 03:07:19;;;;;;;;;;;10.00;99.90;;;;;;5033056;28;20008;-74
2023/01/08 03:09:45;;;;;;;;;;;9.90;99.90;;;;;;5040770;28;19917;-73
2023/01/08 03:12:20;;;;;;;;;;;9.90;99.90;;;;;;5033488;28;19909;-74
2023/01/08 03:14:45;;;;;;;;;;;10.00;99.90;;;;;;5036422;28;19966;-74
2023/01/08 03:17:20;;;;;;;;;;;9.90;99.90;;;;;;5047258;28;19909;-75
2023/01/08 03:19:52;;;;;;;;;;;9.90;99.90;;;;;;5037719;28;19917;-74
2023/01/08 03:22:18;;;;;;;;;;;10.00;99.90;;;;;;5054068;28;20023;-74
2023/01/08 03:24:47;;;;;;;;;;;10.00;99.90;;;;;;5051984;28;19933;-74
2023/01/08 03:27:15;;;;;;;;;;;10.00;99.90;;;;;;5052829;28;19951;-74
2023/01/08 03:29:41;;;;;;;;;;;10.10;99.90;;;;;;5037013;28;19917;-75
2023/01/08 03:32:12;;;;;;;;;;;10.10;99.90;;;;;;5033673;28;20004;-74
2023/01/08 03:34:40;;;;;;;;;;;10.10;99.90;;;;;;5040318;28;19917;-75
2023/01/08 03:37:06;;;;;;;;;;;10.00;99.90;;;;;;5039789;28;19920;-72
2023/01/08 03:39:50;;;;;;;;;;;10.20;99.90;;;;;;5035923;28;19952;-76
2023/01/08 03:42:17;;;;;;;;;;;10.10;99.90;;;;;;5032171;28;20319;-74
2023/01/08 03:44:43;;;;;;;;;;;10.00;99.90;;;;;;5038407;28;19917;-73
2023/01/08 03:47:09;;;;;;;;;;;10.00;99.90;;;;;;5041159;28;19969;-73
2023/01/08 03:49:35;;;;;;;;;;;10.00;99.90;;;;;;5032708;28;20036;-75
2023/01/08 03:52:01;;;;;;;;;;;9.80;99.90;;;;;;5034582;28;20458;-77
2023/01/08 03:54:30;;;;;;;;;;;9.80;99.90;;;;;;5028688;28;20136;-74
2023/01/08 03:56:55;;;;;;;;;;;9.80;99.90;;;;;;5041626;28;20117;-75
2023/01/08 03:59:21;;;;;;;;;;;9.70;99.90;;;;;;5032093;28;20589;-74
2023/01/08 04:01:46;;;;;;;;;;;9.50;99.90;;;;;;5039638;28;20016;-73
2023/01/08 04:04:12;;;;;;;;;;;9.50;99.90;;;;;;5031301;28;20430;-76
2023/01/08 04:06:37;;;;;;;;;;;9.50;99.90;;;;;;5026605;28;19968;-75
2023/01/08 04:09:03;;;;;;;;;;;9.40;99.90;;;;;;5039515;28;19917;-75
2023/01/08 04:11:28;;;;;;;;;;;9.50;99.90;;;;;;5038695;28;20309;-74
2023/01/08 04:13:54;;;;;;;;;;;9.30;99.90;;;;;;5031738;28;19917;-75
2023/01/08 04:16:20;;;;;;;;;;;9.30;99.90;;;;;;5032012;28;20040;-74
2023/01/08 04:18:45;;;;;;;;;;;9.20;99.90;;;;;;5028805;28;19948;-73
2023/01/08 04:21:11;;;;;;;;;;;9.20;99.90;;;;;;5036204;28;20447;-73
2023/01/08 04:23:36;;;;;;;;;;;9.30;99.90;;;;;;5039055;28;19917;-74
2023/01/08 04:26:05;;;;;;;;;;;9.20;99.90;;;;;;5039053;28;19909;-73
2023/01/08 04:28:31;;;;;;;;;;;9.20;99.90;;;;;;5035258;28;20003;-75
2023/01/08 04:30:56;;;;;;;;;;;9.10;99.90;;;;;;5042590;28;20083;-74
2023/01/08 04:33:22;;;;;;;;;;;9.10;99.90;;;;;;5046517;28;20576;-74
2023/01/08 04:35:47;;;;;;;;;;;9.00;99.90;;;;;;5036184;28;19913;-75
2023/01/08 04:38:13;;;;;;;;;;;9.00;99.90;;;;;;5041295;28;19920;-74
2023/01/08 04:40:38;;;;;;;;;;;9.10;99.90;;;;;;5039384;28;20489;-75
2023/01/08 04:43:04;;;;;;;;;;;9.00;99.90;;;;;;5041949;28;19913;-76
2023/01/08 04:45:29;;;;;;;;;;;8.90;99.90;;;;;;5049735;28;19917;-72
2023/01/08 04:47:55;;;;;;;;;;;8.90;99.90;;;;;;5046753;28;19944;-74
2023/01/08 04:50:21;;;;;;;;;;;8.90;99.90;;;;;;5041632;28;19920;-75
2023/01/08 04:52:46;;;;;;;;;;;8.90;99.90;;;;;;5036372;28;20016;-74
2023/01/08 04:55:12;;;;;;;;;;;8.90;99.90;;;;;;5041662;28;20280;-73
2023/01/08 04:57:37;;;;;;;;;;;8.90;99.90;;;;;;5035793;28;19939;-74
2023/01/08 05:00:03;;;;;;;;;;;8.90;99.90;;;;;;5037585;28;19914;-73
2023/01/08 05:02:28;;;;;;;;;;;8.90;99.90;;;;;;5033011;28;19909;-74
2023/01/08 05:04:54;;;;;;;;;;;8.80;99.90;;;;;;5043022;28;19923;-74
2023/01/08 05:07:19;;;;;;;;;;;8.80;99.90;;;;;;5034681;28;20454;-75
2023/01/08 05:09:45;;;;;;;;;;;8.80;99.90;;;;;;5033091;28;19913;-74
2023/01/08 05:12:10;;;;;;;;;;;8.80;99.90;;;;;;5034862;28;19956;-74
2023/01/08 05:14:36;;;;;;;;;;;8.80;99.90;;;;;;5031886;28;20357;-75
2023/01/08 05:17:01;;;;;;;;;;;8.80;99.90;;;;;;5045693;28;19920;-75
2023/01/08 05:19:27;;;;;;;;;;;8.70;99.90;;;;;;5039534;28;19931;-73
2023/01/08 05:21:52;;;;;;;;;;;8.70;99.90;;;;;;5034768;28;20458;-74
2023/01/08 05:24:17;;;;;;;;;;;8.70;99.90;;;;;;5043091;28;19912;-74
2023/01/08 05:26:43;;;;;;;;;;;8.70;99.90;;;;;;5043449;28;20365;-74
2023/01/08 05:29:09;;;;;;;;;;;8.70;99.90;;;;;;5036875;28;19909;-76
2023/01/08 05:31:34;;;;;;;;;;;8.70;99.90;;;;;;5045292;28;19965;-73
2023/01/08 05:34:00;;;;;;;;;;;8.70;99.90;;;;;;5039638;28;20438;-75
2023/01/08 05:36:25;;;;;;;;;;;8.70;99.90;;;;;;5043218;28;20566;-76
2023/01/08 05:38:51;;;;;;;;;;;8.70;99.90;;;;;;5043662;28;20459;-75
2023/01/08 05:41:16;;;;;;;;;;;8.70;99.90;;;;;;5043248;28;19938;-72
2023/01/08 05:43:42;;;;;;;;;;;8.70;99.90;;;;;;5036670;28;20444;-73
2023/01/08 05:46:07;;;;;;;;;;;8.60;99.90;;;;;;5046756;28;19909;-74
2023/01/08 05:48:33;;;;;;;;;;;8.60;99.90;;;;;;5038741;28;19909;-74
2023/01/08 05:50:59;;;;;;;;;;;8.60;99.90;;;;;;5043008;28;19923;-73
2023/01/08 05:53:25;;;;;;;;;;;8.60;99.90;;;;;;5044748;28;20015;-75
2023/01/08 05:55:50;;;;;;;;;;;8.60;99.90;;;;;;5036798;28;20462;-75
2023/01/08 05:58:18;;;;;;;;;;;8.50;99.90;;;;;;5042226;28;19931;-75
2023/01/08 06:00:44;;;;;;;;;;;8.60;99.90;;;;;;5042463;28;19913;-74
2023/01/08 06:03:09;;;;;;;;;;;8.50;99.90;;;;;;5039983;28;20429;-74
2023/01/08 06:05:35;;;;;;;;;;;8.50;99.90;;;;;;5032050;28;19917;-72
2023/01/08 06:08:00;;;;;;;;;;;8.50;99.90;;;;;;5047849;28;20024;-73
2023/01/08 06:10:26;;;;;;;;;;;8.50;99.90;;;;;;5037705;28;19917;-73
2023/01/08 06:12:51;;;;;;;;;;;8.40;99.90;;;;;;5032194;28;19917;-75
2023/01/08 06:15:17;;;;;;;;;;;8.40;99.90;;;;;;5036698;28;19923;-74
2023/01/08 06:17:42;;;;;;;;;;;8.40;99.90;;;;;;5036933;28;19916;-70
2023/01/08 06:20:08;;;;;;;;;;;8.30;99.90;;;;;;5037581;28;19996;-76
2023/01/08 06:22:34;;;;;;;;;;;8.30;99.90;;;;;;5037786;28;20012;-75
2023/01/08 06:24:59;;;;;;;;;;;8.30;99.90;;;;;;5046637;28;19909;-72
2023/01/08 06:27:25;;;;;;;;;;;8.30;99.90;;;;;;5034432;28;20377;-75
2023/01/08 06:29:50;;;;;;;;;;;8.30;99.90;;;;;;5037712;28;19913;-74
2023/01/08 06:32:16;;;;;;;;;;;8.20;99.90;;;;;;5038005;28;20557;-73
2023/01/08 06:34:41;;;;;;;;;;;8.20;99.90;;;;;;5035410;28;19909;-75
2023/01/08 06:37:07;;;;;;;;;;;8.20;99.90;;;;;;5040527;28;19913;-73
2023/01/08 06:39:32;;;;;;;;;;;8.20;99.90;;;;;;5042854;28;20283;-75
2023/01/08 06:41:58;;;;;;;;;;;8.20;99.90;;;;;;5046372;28;20010;-76
2023/01/08 06:44:24;;;;;;;;;;;8.10;99.90;;;;;;5053970;28;19912;-75
2023/01/08 06:46:49;;;;;;;;;;;8.10;99.90;;;;;;5044968;28;19924;-74
2023/01/08 06:49:16;;;;;;;;;;;8.10;99.90;;;;;;5038014;28;19939;-75
2023/01/08 06:51:41;;;;;;;;;;;8.10;99.90;;;;;;5048854;28;19920;-74
2023/01/08 06:54:07;;;;;;;;;;;8.00;99.90;;;;;;5041748;28;19917;-74
2023/01/08 06:56:32;;;;;;;;;;;8.10;99.90;;;;;;5048996;28;20027;-74
2023/01/08 06:58:58;;;;;;;;;;;8.00;99.90;;;;;;5047561;28;19920;-75
2023/01/08 07:01:23;;;;;;;;;;;8.00;99.90;;;;;;5050608;28;19913;-75
2023/01/08 07:03:49;;;;;;;;;;;8.00;99.90;;;;;;5051684;28;19959;-74
2023/01/08 07:06:15;;;;;;;;;;;8.00;99.90;;;;;;5049970;28;19936;-74
2023/01/08 07:08:41;;;;;;;;;;;7.90;99.90;;;;;;5047197;28;20598;-74
2023/01/08 07:11:07;;;;;;;;;;;8.00;99.90;;;;;;5049002;28;19938;-75
2023/01/08 07:13:32;;;;;;;;;;;8.00;99.90;;;;;;5045723;28;19936;-76
2023/01/08 07:16:03;;;;;;;;;;;8.00;99.90;;;;;;5052309;28;20111;-74
2023/01/08 07:18:28;;;;;;;;;;;7.90;99.90;;;;;;5042225;28;19913;-75
2023/01/08 07:20:54;;;;;;;;;;;8.00;99.90;;;;;;5051154;28;20022;-72
2023/01/08 07:23:19;;;;;;;;;;;7.90;99.90;;;;;;5051310;28;19917;-75
2023/01/08 07:25:46;;;;;;;;;;;7.90;99.90;;;;;;5051172;28;19909;-75
2023/01/08 07:28:12;;;;;;;;;;;7.80;99.90;;;;;;5040845;28;19909;-74
2023/01/08 07:30:37;;;;;;;;;;;7.90;99.90;;;;;;5046440;28;20335;-74
2023/01/08 07:33:03;;;;;;;;;;;7.90;99.90;;;;;;5047609;28;19921;-75
2023/01/08 07:35:28;;;;;;;;;;;7.90;99.90;;;;;;5047218;28;19909;-74
2023/01/08 07:37:54;;;;;;;;;;;7.80;99.90;;;;;;5044381;28;20431;-75
2023/01/08 07:40:20;;;;;;;;;;;7.80;99.90;;;;;;5047583;28;19920;-75
2023/01/08 07:42:45;;;;;;;;;;;7.80;99.90;;;;;;5044895;28;19913;-73
2023/01/08 07:45:10;;;;;;;;;;;7.70;99.90;;;;;;5042960;28;20345;-75
2023/01/08 07:47:36;;;;;;;;;;;7.70;99.90;;;;;;5042914;28;19913;-75
2023/01/08 07:50:01;;;;;;;;;;;7.60;99.90;;;;;;5042640;28;19923;-74
2023/01/08 07:52:27;;;;;;;;;;;7.60;99.90;;;;;;5036439;28;19913;-74
2023/01/08 07:54:53;;;;;;;;;;;7.60;99.90;;;;;;5038164;28;20011;-73
2023/01/08 07:57:18;;;;;;;;;;;7.60;99.90;;;;;;5037332;28;20394;-74
2023/01/08 07:59:44;;;;;;;;;;;7.50;99.90;;;;;;5038890;28;19925;-75
2023/01/08 08:02:09;;;;;;;;;;;7.50;99.90;;;;;;5041471;28;19919;-75
2023/01/08 08:04:35;;;;;;;;;;;7.50;99.90;;;;;;5040597;28;20496;-74
2023/01/08 08:07:00;;;;;;;;;;;7.50;99.90;;;;;;5039765;28;20432;-76
2023/01/08 08:09:26;;;;;;;;;;;7.50;99.90;;;;;;5041295;28;19915;-74
2023/01/08 08:11:51;;;;;;;;;;;7.50;99.90;;;;;;5043680;28;19956;-75
2023/01/08 08:14:17;;;;;;;;;;;7.40;99.90;;;;;;5038961;28;19921;-73
2023/01/08 08:16:42;;;;;;;;;;;7.40;99.90;;;;;;5043592;28;19967;-76
2023/01/08 08:19:09;;;;;;;;;;;7.40;99.90;;;;;;5039882;28;19913;-75
2023/01/08 08:21:34;;;;;;;;;;;7.40;99.90;;;;;;5041576;28;19932;-74
2023/01/08 08:24:00;;;;;;;;;;;7.40;99.90;;;;;;5038663;28;19941;-76
2023/01/08 08:26:25;;;;;;;;;;;7.40;99.90;;;;;;5039234;28;19979;-74
2023/01/08 08:28:51;;;;;;;;;;;7.40;99.90;;;;;;5037832;28;19962;-72
2023/01/08 08:31:16;;;;;;;;;;;7.40;99.90;;;;;;5030133;28;19913;-74
2023/01/08 08:33:42;;;;;;;;;;;7.40;99.90;;;;;;5040044;28;19913;-75
2023/01/08 08:36:07;;;;;;;;;;;7.40;99.90;;;;;;5040504;28;19916;-74
2023/01/08 08:38:33;;;;;;;;;;;7.50;99.90;;;;;;5034373;28;19913;-74
2023/01/08 08:40:58;;;;;;;;;;;7.40;99.90;;;;;;5035086;28;19909;-77
2023/01/08 08:43:24;;;;;;;;;;;7.40;99.90;;;;;;5040088;28;19919;-76
2023/01/08 08:45:49;;;;;;;;;;;7.40;99.90;;;;;;5044676;28;20382;-75
2023/01/08 08:48:15;;;;;;;;;;;7.40;99.90;;;;;;5035760;28;19912;-74
2023/01/08 08:50:41;;;;;;;;;;;7.40;99.90;;;;;;5045305;28;19909;-76
2023/01/08 08:53:07;;;;;;;;;;;7.40;99.90;;;;;;5038377;28;19974;-75
2023/01/08 08:55:32;;;;;;;;;;;7.40;99.90;;;;;;5031040;28;19913;-78
2023/01/08 08:58:03;;;;;;;;;;;7.50;99.90;;;;;;5041801;28;20401;-76
2023/01/08 09:00:28;;;;;;;;;;;7.50;99.90;;;;;;5043032;28;19913;-76
2023/01/08 09:02:53;;;;;;;;;;;7.50;99.90;;;;;;5042215;28;20539;-75
2023/01/08 09:05:19;;;;;;;;;;;7.60;99.90;;;;;;5042333;28;19920;-75
2023/01/08 09:07:44;;;;;;;;;;;7.60;99.90;;;;;;5042123;28;19913;-78
2023/01/08 09:10:10;;;;;;;;;;;7.60;99.90;;;;;;5045184;28;19971;-76
2023/01/08 09:12:35;;;;;;;;;;;7.60;99.90;;;;;;5038761;28;19913;-75
2023/01/08 09:15:01;;;;;;;;;;;7.70;99.90;;;;;;5059014;28;19913;-77
2023/01/08 09:17:26;;;;;;;;;;;7.70;99.90;;;;;;5059854;28;19928;-76
2023/01/08 09:19:52;;;;;;;;;;;7.80;99.90;;;;;;5058047;28;19917;-77
2023/01/08 09:22:17;;;;;;;;;;;7.90;99.90;;;;;;5054863;28;20277;-74
2023/01/08 09:24:43;;;;;;;;;;;7.80;99.90;;;;;;5053438;28;19917;-76
2023/01/08 09:27:08;;;;;;;;;;;7.90;99.90;;;;;;5056705;28;19909;-76
2023/01/08 09:29:34;;;;;;;;;;;7.90;99.90;;;;;;5056408;28;19920;-76
2023/01/08 09:32:00;;;;;;;;;;;8.00;99.90;;;;;;5056326;28;19913;-76
2023/01/08 09:34:26;;;;;;;;;;;8.00;99.90;;;;;;5051028;28;19976;-75
2023/01/08 09:36:51;;;;;;;;;;;8.00;99.90;;;;;;5053958;28;19954;-73
2023/01/08 09:39:17;;;;;;;;;;;8.10;99.90;;;;;;5054338;28;19967;-75
2023/01/08 09:41:44;;;;;;;;;;;8.10;99.90;;;;;;5049191;28;19989;-75
2023/01/08 09:44:13;;;;;;;;;;;8.20;99.90;;;;;;5050612;28;20024;-74
2023/01/08 09:46:39;;;;;;;;;;;8.20;99.90;;;;;;5047686;28;19909;-75
2023/01/08 09:49:05;;;;;;;;;;;8.20;99.90;;;;;;5047422;28;19940;-77
2023/01/08 09:51:35;;;;;;;;;;;8.30;99.90;;;;;;5046897;28;19944;-74
2023/01/08 09:54:01;;;;;;;;;;;8.30;99.90;;;;;;5046075;28;19917;-75
2023/01/08 09:56:27;;;;;;;;;;;8.40;99.90;;;;;;5045049;28;19909;-75
2023/01/08 09:58:58;;;;;;;;;;;8.40;99.90;;;;;;5046294;28;20311;-74
2023/01/08 10:01:26;;;;;;;;;;;8.50;99.90;;;;;;5040985;28;19909;-76
2023/01/08 10:04:06;;;;;;;;;;;8.50;99.90;;;;;;5038657;28;20719;-76
2023/01/08 10:06:31;;;;;;;;;;;8.60;99.90;;;;;;5048379;28;19912;-74
2023/01/08 10:08:57;;;;;;;;;;;8.60;99.90;;;;;;5042656;28;19920;-75
2023/01/08 10:11:25;;;;;;;;;;;8.70;99.90;;;;;;5047253;28;19913;-74
2023/01/08 10:13:55;;;;;;;;;;;8.70;99.90;;;;;;5045369;28;19943;-77
2023/01/08 10:16:25;;;;;;;;;;;8.80;99.90;;;;;;5053350;28;19909;-75
2023/01/08 10:18:50;;;;;;;;;;;8.80;99.90;;;;;;5053655;28;19931;-74
2023/01/08 10:21:16;;;;;;;;;;;8.80;99.90;;;;;;5065757;28;20330;-73
2023/01/08 10:23:49;;;;;;;;;;;8.90;99.90;;;;;;5065531;28;19915;-76
2023/01/08 10:26:23;;;;;;;;;;;9.00;99.90;;;;;;5058754;28;19913;-76
2023/01/08 10:28:49;;;;;;;;;;;9.10;99.90;;;;;;5059232;28;19992;-78
2023/01/08 10:31:15;;;;;;;;;;;9.00;99.90;;;;;;5060779;28;19924;-75
2023/01/08 10:33:42;;;;;;;;;;;9.00;99.90;;;;;;5058122;28;19916;-76
2023/01/08 10:36:09;;;;;;;;;;;9.10;99.90;;;;;;5051120;28;20014;-77
2023/01/08 10:38:36;;;;;;;;;;;9.10;99.90;;;;;;5053744;28;19909;-75
2023/01/08 10:41:03;;;;;;;;;;;9.20;99.90;;;;;;5048023;28;19909;-74
2023/01/08 10:43:32;;;;;;;;;;;9.30;99.90;;;;;;5046356;28;19965;-73
2023/01/08 10:46:01;;;;;;;;;;;9.30;99.90;;;;;;5047178;28;19909;-76
2023/01/08 10:48:49;;;;;;;;;;;9.40;99.90;;;;;;5046631;28;19939;-74
2023/01/08 10:51:17;;;;;;;;;;;9.40;99.90;;;;;;5049469;28;19916;-77
2023/01/08 10:53:43;;;;;;;;;;;9.50;99.90;;;;;;5053851;28;19923;-76
2023/01/08 10:56:17;;;;;;;;;;;9.50;99.90;;;;;;5052628;28;19989;-76
2023/01/08 10:58:43;;;;;;;;;;;9.50;99.90;;;;;;5052191;28;19931;-76
2023/01/08 11:01:25;;;;;;;;;;;9.70;99.90;;;;;;5048896;28;19913;-76
2023/01/08 11:03:51;;;;;;;;;;;9.80;99.90;;;;;;5052380;28;19974;-75
2023/01/08 11:06:20;;;;;;;;;;;9.80;99.90;;;;;;5050686;28;19912;-74
2023/01/08 11:08:49;;;;;;;;;;;9.90;99.90;;;;;;5051194;28;19909;-75
2023/01/08 11:11:14;;;;;;;;;;;9.90;99.90;;;;;;5048102;28;19905;-74
2023/01/08 11:13:40;;;;;;;;;;;9.90;99.90;;;;;;5047421;28;19913;-75
2023/01/08 11:16:06;;;;;;;;;;;9.90;99.90;;;;;;5051077;28;19967;-77
2023/01/08 11:18:41;;;;;;;;;;;10.00;99.90;;;;;;5054081;28;19913;-77
2023/01/08 11:21:08;;;;;;;;;;;10.00;99.90;;;;;;5048040;28;19916;-75
2023/01/08 11:23:33;;;;;;;;;;;9.90;99.90;;;;;;5044777;28;19979;-73
2023/01/08 11:26:04;;;;;;;;;;;9.90;99.90;;;;;;5060157;28;19910;-80
2023/01/08 11:28:52;;;;;;;;;;;9.80;99.90;;;;;;5060539;28;19923;-76
2023/01/08 11:31:20;;;;;;;;;;;9.80;99.90;;;;;;5058208;28;19917;-76
2023/01/08 11:33:47;;;;;;;;;;;10.00;99.90;;;;;;5054431;28;20026;-74
2023/01/08 11:36:19;;;;;;;;;;;10.00;99.90;;;;;;5049037;28;19920;-74
2023/01/08 11:38:44;;;;;;;;;;;10.20;99.90;;;;;;5062644;28;19920;-72
2023/01/08 11:41:20;;;;;;;;;;;10.30;99.90;;;;;;5060155;28;19908;-73
2023/01/08 11:43:57;;;;;;;;;;;10.50;99.90;;;;;;5054070;28;20007;-74
2023/01/08 11:46:35;;;;;;;;;;;10.40;99.90;;;;;;5058817;28;19909;-78
2023/01/08 11:49:00;;;;;;;;;;;10.70;99.90;;;;;;5049904;28;19909;-74
2023/01/08 11:51:25;;;;;;;;;;;10.90;99.90;;;;;;5050685;28;19944;-74
2023/01/08 11:54:14;;;;;;;;;;;11.10;99.90;;;;;;5042061;28;19963;-74
2023/01/08 11:57:00;;;;;;;;;;;11.10;99.90;;;;;;5044915;28;19909;-74
2023/01/08 11:59:28;;;;;;;;;;;11.10;99.90;;;;;;5037332;28;19917;-74
2023/01/08 12:01:57;;;;;;;;;;;11.20;99.90;;;;;;5045950;28;19963;-75
2023/01/08 12:04:42;;;;;;;;;;;11.30;99.90;;;;;;5036383;28;19916;-74
2023/01/08 12:07:17;;;;;;;;;;;11.40;99.90;;;;;;5032298;28;19917;-73
2023/01/08 12:09:53;;;;;;;;;;;11.50;99.90;;;;;;5034645;28;19979;-74
2023/01/08 12:12:21;;;;;;;;;;;11.80;99.90;;;;;;5035946;28;20122;-74
2023/01/08 12:14:46;;;;;;;;;;;11.90;99.90;;;;;;5038287;28;19987;-73
2023/01/08 12:17:21;;;;;;;;;;;11.70;99.90;;;;;;5042738;28;20012;-74
2023/01/08 12:19:46;;;;;;;;;;;11.50;99.90;;;;;;5035227;28;20213;-75
2023/01/08 12:22:18;;;;;;;;;;;11.60;99.90;;;;;;5034077;28;20466;-77
2023/01/08 12:25:02;;;;;;;;;;;11.70;99.90;;;;;;5039111;28;19913;-75
2023/01/08 12:27:32;;;;;;;;;;;11.80;99.90;;;;;;5033747;28;19917;-74
2023/01/08 12:30:06;;;;;;;;;;;12.10;99.90;;;;;;5041670;28;20367;-77
2023/01/08 12:32:35;;;;;;;;;;;12.00;99.90;;;;;;5042873;28;19948;-78
2023/01/08 12:35:15;;;;;;;;;;;11.90;99.90;;;;;;5032750;28;19972;-75
2023/01/08 12:38:04;;;;;;;;;;;12.00;99.90;;;;;;5041135;28;19915;-73
2023/01/08 12:40:34;;;;;;;;;;;12.20;99.90;;;;;;5043510;28;19916;-76
2023/01/08 12:43:03;;;;;;;;;;;11.90;99.90;;;;;;5042772;28;19935;-72
2023/01/08 12:45:31;;;;;;;;;;;11.90;99.90;;;;;;5049267;28;19913;-73
2023/01/08 12:48:02;;;;;;;;;;;12.00;99.90;;;;;;5046372;28;20001;-75
2023/01/08 12:50:48;;;;;;;;;;;11.90;99.90;;;;;;5047452;28;19955;-77
2023/01/08 12:53:22;;;;;;;;;;;11.80;99.90;;;;;;5042268;28;19929;-76
2023/01/08 12:55:55;;;;;;;;;;;11.70;99.90;;;;;;5038337;28;20501;-73
2023/01/08 12:58:27;;;;;;;;;;;12.00;99.90;;;;;;5043820;28;20550;-74
2023/01/08 13:01:05;;;;;;;;;;;12.00;99.90;;;;;;5031072;28;20596;-76
2023/01/08 13:03:31;;;;;;;;;;;12.10;99.90;;;;;;5038660;28;19940;-76
2023/01/08 13:06:11;;;;;;;;;;;11.90;99.90;;;;;;5035507;28;19908;-72
2023/01/08 13:08:38;;;;;;;;;;;11.90;99.90;;;;;;5046348;28;20382;-74
2023/01/08 13:11:04;;;;;;;;;;;11.90;99.90;;;;;;5050209;28;20003;-73
2023/01/08 13:13:31;;;;;;;;;;;12.00;99.90;;;;;;5052658;28;19960;-74
2023/01/08 13:16:06;;;;;;;;;;;12.00;99.90;;;;;;5055769;28;19921;-77
2023/01/08 13:18:32;;;;;;;;;;;11.80;99.90;;;;;;5060109;28;19944;-76
2023/01/08 13:20:59;;;;;;;;;;;11.70;99.90;;;;;;5054255;28;19931;-77
2023/01/08 13:23:26;;;;;;;;;;;11.30;99.90;;;;;;5054434;28;19936;-74
2023/01/08 13:25:52;;;;;;;;;;;11.20;99.90;;;;;;5061273;28;19908;-74
2023/01/08 13:28:37;;;;;;;;;;;11.20;99.90;;;;;;5064015;28;19919;-75
2023/01/08 13:31:07;;;;;;;;;;;11.30;99.90;;;;;;5066698;28;19923;-74
2023/01/08 13:33:32;;;;;;;;;;;11.00;99.90;;;;;;5064478;28;19913;-73
2023/01/08 13:36:15;;;;;;;;;;;10.80;99.90;;;;;;5065406;28;19914;-75
2023/01/08 13:38:40;;;;;;;;;;;10.90;99.90;;;;;;5054416;28;19956;-74
2023/01/08 13:41:25;;;;;;;;;;;10.80;99.90;;;;;;5058063;28;19913;-75
2023/01/08 13:43:56;;;;;;;;;;;10.70;99.90;;;;;;5050805;28;19909;-74
2023/01/08 13:46:22;;;;;;;;;;;10.60;99.90;;;;;;5044903;28;19976;-74
2023/01/08 13:48:49;;;;;;;;;;;10.40;99.90;;;;;;5044313;28;19955;-74
2023/01/08 13:51:26;;;;;;;;;;;10.40;99.90;;;;;;5046830;28;19979;-74
2023/01/08 13:53:51;;;;;;;;;;;10.40;99.90;;;;;;5041813;28;19917;-72
2023/01/08 13:56:17;;;;;;;;;;;10.40;99.90;;;;;;5045538;28;19917;-72
2023/01/08 13:58:50;;;;;;;;;;;10.40;99.90;;;;;;5046437;28;20626;-72
2023/01/08 14:01:15;;;;;;;;;;;10.30;99.90;;;;;;5047774;28;19916;-75
2023/01/08 14:03:45;;;;;;;;;;;10.30;99.90;;;;;;5046587;28;19936;-74
2023/01/08 14:06:10;;;;;;;;;;;10.30;99.90;;;;;;5047996;28;19913;-74
2023/01/08 14:08:36;;;;;;;;;;;10.40;99.90;;;;;;5044990;28;20355;-74
2023/01/08 14:11:02;;;;;;;;;;;10.40;99.90;;;;;;5047935;28;19909;-72
2023/01/08 14:13:29;;;;;;;;;;;10.50;99.90;;;;;;5044715;28;19920;-75
2023/01/08 14:15:57;;;;;;;;;;;10.60;99.90;;;;;;5048473;28;19917;-74
2023/01/08 14:18:23;;;;;;;;;;;10.70;99.90;;;;;;5043002;28;19940;-73
2023/01/08 14:20:49;;;;;;;;;;;10.60;99.90;;;;;;5045383;28;19928;-78
2023/01/08 14:23:26;;;;;;;;;;;10.50;99.90;;;;;;5045091;28;19913;-74
2023/01/08 14:25:51;;;;;;;;;;;10.30;99.90;;;;;;5046277;28;19960;-75
2023/01/08 14:28:19;;;;;;;;;;;10.20;99.90;;;;;;5042751;28;20834;-73